Time;durP1;ratioP1;P1;durP2;ratioP2;P2;SDS_P1;SDS_P2;PMS_P1;PMS_P2;Temp;Humidity;BMP_temperature;BMP_pressure;BME280_temperature;BME280_humidity;BME280_pressure;Samples;Min_cycle;Max_cycle;Signal;HPM_P1;HPM_P2
2022/03/30 00:00:57;;;;;;;13.93;6.57;;;11.50;75.50;;;;;;10359081;28;20049;-61
2022/03/30 00:05:58;;;;;;;13.27;5.57;;;11.40;75.40;;;;;;10359370;28;20505;-60
2022/03/30 00:10:59;;;;;;;11.65;5.40;;;11.40;75.40;;;;;;10363365;28;20516;-61
2022/03/30 00:16:00;;;;;;;13.77;5.97;;;11.40;75.40;;;;;;10359074;28;20034;-61
2022/03/30 00:21:01;;;;;;;12.88;5.70;;;11.40;75.40;;;;;;10341696;28;20493;-62
2022/03/30 00:26:02;;;;;;;12.07;5.18;;;11.40;75.50;;;;;;10359981;28;20045;-61
2022/03/30 00:31:03;;;;;;;13.23;5.38;;;11.40;75.50;;;;;;10356373;28;20056;-61
2022/03/30 00:36:05;;;;;;;11.65;5.50;;;11.40;75.50;;;;;;10357887;28;20443;-61
2022/03/30 00:41:05;;;;;;;13.35;5.07;;;11.30;75.50;;;;;;10361473;28;20046;-61
2022/03/30 00:46:06;;;;;;;12.05;5.53;;;11.30;75.50;;;;;;10349696;28;20022;-61
2022/03/30 00:51:06;;;;;;;13.75;5.57;;;11.30;75.50;;;;;;10357715;28;20048;-60
2022/03/30 00:56:08;;;;;;;12.68;5.72;;;11.30;75.60;;;;;;10348910;28;20448;-61
2022/03/30 01:01:08;;;;;;;13.75;6.03;;;11.30;75.60;;;;;;10360648;28;20592;-62
2022/03/30 01:06:09;;;;;;;12.52;5.53;;;11.30;75.60;;;;;;10364558;28;20030;-61
2022/03/30 01:11:10;;;;;;;13.23;6.15;;;11.30;75.60;;;;;;10367605;28;20080;-60
2022/03/30 01:16:11;;;;;;;11.32;5.50;;;11.20;75.50;;;;;;10363984;28;20112;-61
2022/03/30 01:21:13;;;;;;;13.27;5.63;;;11.20;75.60;;;;;;10347422;28;20026;-62
2022/03/30 01:26:14;;;;;;;12.40;5.47;;;11.20;75.60;;;;;;10363609;28;20030;-61
2022/03/30 01:36:37;;;;;;;13.45;6.10;;;11.20;76.20;;;;;;10361610;28;20033;-60
2022/03/30 01:41:38;;;;;;;12.43;6.38;;;11.10;75.50;;;;;;10364357;28;20171;-62
2022/03/30 01:46:38;;;;;;;14.88;6.65;;;11.10;75.50;;;;;;10357206;28;20034;-61
2022/03/30 01:51:39;;;;;;;14.18;7.15;;;11.10;75.60;;;;;;10358994;28;20034;-62
2022/03/30 01:56:40;;;;;;;14.68;6.32;;;11.10;75.60;;;;;;10359502;28;20041;-62
2022/03/30 02:01:41;;;;;;;13.23;6.00;;;11.10;75.60;;;;;;10357920;28;20471;-61
2022/03/30 02:06:42;;;;;;;18.25;6.70;;;11.10;75.60;;;;;;10353164;28;20030;-60
2022/03/30 02:11:43;;;;;;;16.35;6.75;;;11.00;75.60;;;;;;10361426;28;20084;-62
2022/03/30 02:16:43;;;;;;;13.32;6.25;;;11.10;75.60;;;;;;10362117;28;20042;-60
2022/03/30 02:21:44;;;;;;;18.55;7.18;;;11.00;75.60;;;;;;10352993;28;20033;-61
2022/03/30 02:26:47;;;;;;;10.15;5.60;;;11.00;75.60;;;;;;10365178;28;20038;-61
2022/03/30 02:31:47;;;;;;;14.70;6.40;;;10.90;75.60;;;;;;10355431;28;20034;-62
2022/03/30 02:36:48;;;;;;;13.88;6.65;;;11.00;75.70;;;;;;10366240;28;20399;-61
2022/03/30 02:41:49;;;;;;;11.73;6.07;;;11.00;75.80;;;;;;10362783;28;20030;-61
2022/03/30 02:46:50;;;;;;;13.52;6.07;;;11.00;75.80;;;;;;10342557;28;20030;-61
2022/03/30 02:51:51;;;;;;;16.42;6.90;;;10.90;75.80;;;;;;10355842;28;20053;-60
2022/03/30 02:56:52;;;;;;;19.20;6.47;;;10.90;75.80;;;;;;10358390;28;20079;-60
2022/03/30 03:01:54;;;;;;;14.75;7.07;;;10.90;75.90;;;;;;10358542;28;20045;-61
2022/03/30 03:06:55;;;;;;;15.40;6.75;;;10.90;75.90;;;;;;10358340;28;20037;-61
2022/03/30 03:11:56;;;;;;;15.77;6.70;;;10.80;75.90;;;;;;10361851;28;20381;-62
2022/03/30 03:16:57;;;;;;;15.45;6.18;;;10.90;75.90;;;;;;10358266;28;20042;-60
2022/03/30 03:21:57;;;;;;;13.20;6.13;;;10.80;75.80;;;;;;10337555;28;20035;-62
2022/03/30 03:26:59;;;;;;;15.85;6.43;;;10.80;75.90;;;;;;10363728;28;20034;-61
2022/03/30 03:32:00;;;;;;;15.93;7.13;;;10.80;75.90;;;;;;10351708;28;20049;-60
2022/03/30 03:37:01;;;;;;;14.18;6.90;;;10.80;75.90;;;;;;10357353;28;20037;-61
2022/03/30 03:42:01;;;;;;;14.27;7.10;;;10.80;75.90;;;;;;10356665;28;20037;-61
2022/03/30 03:47:03;;;;;;;14.82;6.65;;;10.80;75.90;;;;;;10355893;28;20030;-61
2022/03/30 03:52:05;;;;;;;15.45;6.47;;;10.70;75.80;;;;;;10358942;28;20488;-62
2022/03/30 03:57:06;;;;;;;16.23;7.03;;;10.80;75.90;;;;;;10357502;28;20033;-61
2022/03/30 04:02:07;;;;;;;13.27;6.18;;;10.70;75.80;;;;;;10341049;28;20508;-61
2022/03/30 04:07:07;;;;;;;14.73;7.30;;;10.70;75.80;;;;;;10345620;28;20030;-62
2022/03/30 04:12:08;;;;;;;19.48;7.15;;;10.70;75.90;;;;;;10359220;28;20080;-60
2022/03/30 04:17:11;;;;;;;14.90;6.35;;;10.70;75.90;;;;;;10348288;28;20029;-62
2022/03/30 04:22:12;;;;;;;22.45;7.78;;;10.70;75.90;;;;;;10336038;28;20074;-60
2022/03/30 04:27:13;;;;;;;15.55;7.32;;;10.70;75.90;;;;;;10362022;28;20145;-62
2022/03/30 04:32:13;;;;;;;15.23;6.82;;;10.70;75.90;;;;;;10367564;28;20033;-61
2022/03/30 04:37:14;;;;;;;15.27;6.50;;;10.70;76.00;;;;;;10346257;28;20083;-61
2022/03/30 04:42:15;;;;;;;15.60;7.38;;;10.70;76.00;;;;;;10353718;28;20029;-61
2022/03/30 04:47:16;;;;;;;11.40;6.18;;;10.70;76.00;;;;;;10356355;28;20136;-61
2022/03/30 04:52:19;;;;;;;15.07;7.20;;;10.70;76.00;;;;;;10357667;28;20074;-62
2022/03/30 04:57:20;;;;;;;13.20;6.63;;;10.70;76.10;;;;;;10361307;28;20116;-65
2022/03/30 05:02:21;;;;;;;15.07;6.55;;;10.70;76.10;;;;;;10357310;28;20025;-62
2022/03/30 05:07:22;;;;;;;15.70;7.20;;;10.60;76.10;;;;;;10351712;28;20036;-62
2022/03/30 05:12:23;;;;;;;18.10;6.57;;;10.60;76.10;;;;;;10362605;28;20504;-61
2022/03/30 05:17:24;;;;;;;13.38;6.47;;;10.60;76.20;;;;;;10356055;28;20058;-61
2022/03/30 05:22:25;;;;;;;16.58;7.22;;;10.60;76.20;;;;;;10343233;28;20083;-61
2022/03/30 05:27:26;;;;;;;14.65;6.47;;;10.60;76.20;;;;;;10358914;28;20033;-62
2022/03/30 05:32:27;;;;;;;13.68;6.30;;;10.60;76.30;;;;;;10350518;28;20464;-60
2022/03/30 05:37:28;;;;;;;11.80;5.90;;;10.60;76.30;;;;;;10354931;28;20036;-61
2022/03/30 05:42:29;;;;;;;15.20;6.40;;;10.60;76.30;;;;;;10358802;28;20492;-60
2022/03/30 05:47:30;;;;;;;15.55;6.72;;;10.60;77.00;;;;;;10361682;28;20120;-61
2022/03/30 05:52:30;;;;;;;16.85;6.85;;;10.60;76.40;;;;;;10369275;28;20495;-61
2022/03/30 05:57:31;;;;;;;14.05;6.30;;;10.60;76.50;;;;;;10367426;28;20452;-59
2022/03/30 06:02:32;;;;;;;16.02;5.90;;;10.60;76.50;;;;;;10367200;28;20388;-61
2022/03/30 06:07:32;;;;;;;14.85;6.03;;;10.60;76.50;;;;;;10362303;28;20018;-62
2022/03/30 06:12:33;;;;;;;10.48;5.00;;;10.60;76.50;;;;;;10366326;28;20402;-61
2022/03/30 06:17:34;;;;;;;12.93;6.00;;;10.60;76.50;;;;;;10347625;28;20389;-62
2022/03/30 06:22:36;;;;;;;11.77;5.25;;;10.60;76.50;;;;;;10344928;28;20125;-61
2022/03/30 06:27:38;;;;;;;10.32;4.60;;;10.60;76.60;;;;;;10366008;28;20389;-60
2022/03/30 06:32:38;;;;;;;10.98;4.40;;;10.60;77.20;;;;;;10356617;28;20038;-60
2022/03/30 06:37:39;;;;;;;9.75;4.45;;;10.60;76.60;;;;;;10361510;28;20408;-61
2022/03/30 06:42:41;;;;;;;8.07;4.00;;;10.60;76.50;;;;;;10365881;28;20026;-61
2022/03/30 06:47:42;;;;;;;8.38;3.50;;;10.60;76.50;;;;;;10351778;28;20034;-61
2022/03/30 06:52:42;;;;;;;5.88;3.03;;;10.60;76.50;;;;;;10353777;28;20484;-61
2022/03/30 06:57:43;;;;;;;6.97;2.97;;;10.60;76.50;;;;;;10365831;28;20083;-62
2022/03/30 07:02:44;;;;;;;6.68;3.17;;;10.70;76.50;;;;;;10359862;28;20065;-60
2022/03/30 07:13:06;;;;;;;5.40;2.40;;;10.70;76.40;;;;;;10364638;28;20034;-62
2022/03/30 07:18:08;;;;;;;3.60;1.85;;;10.70;76.30;;;;;;10356003;28;20035;-61
2022/03/30 07:23:10;;;;;;;3.05;1.88;;;10.80;76.30;;;;;;10363525;28;20030;-61
2022/03/30 07:28:11;;;;;;;3.03;1.50;;;10.80;76.20;;;;;;10348357;28;20030;-63
2022/03/30 07:33:12;;;;;;;4.32;1.40;;;10.90;76.50;;;;;;10332712;28;20292;-60
2022/03/30 07:38:14;;;;;;;3.65;1.63;;;10.90;76.20;;;;;;10358134;28;20618;-62
2022/03/30 07:43:16;;;;;;;1.95;1.00;;;10.90;76.10;;;;;;10357858;28;20476;-65
2022/03/30 07:48:17;;;;;;;4.20;1.38;;;11.00;76.10;;;;;;10344369;28;20370;-61
2022/03/30 07:53:18;;;;;;;1.83;1.33;;;11.00;76.10;;;;;;10336660;28;20046;-60
2022/03/30 07:58:20;;;;;;;1.98;1.10;;;11.00;76.10;;;;;;10331452;28;20032;-63
2022/03/30 08:03:21;;;;;;;1.90;1.20;;;11.00;76.10;;;;;;10358459;28;20448;-65
2022/03/30 08:08:22;;;;;;;3.47;1.60;;;11.00;76.10;;;;;;10352618;28;20381;-63
2022/03/30 08:13:23;;;;;;;2.53;1.17;;;11.00;76.00;;;;;;10351072;28;20046;-63
2022/03/30 08:18:24;;;;;;;2.03;1.05;;;11.00;76.10;;;;;;10326214;28;20068;-62
2022/03/30 08:23:24;;;;;;;1.50;1.00;;;11.00;76.10;;;;;;10325606;28;20442;-61
2022/03/30 08:28:25;;;;;;;2.10;1.17;;;11.10;76.10;;;;;;10322082;28;20061;-61
2022/03/30 08:33:27;;;;;;;4.47;1.45;;;11.10;76.10;;;;;;10324375;28;20397;-62
2022/03/30 08:38:27;;;;;;;1.83;0.90;;;11.10;76.00;;;;;;10325856;28;20388;-62
2022/03/30 08:43:29;;;;;;;2.63;0.95;;;11.10;76.10;;;;;;10365292;28;20041;-64
2022/03/30 08:48:30;;;;;;;1.70;1.02;;;11.10;76.00;;;;;;10353574;28;20136;-64
2022/03/30 08:53:31;;;;;;;1.40;0.85;;;11.10;76.10;;;;;;10346829;28;20471;-66
2022/03/30 08:58:33;;;;;;;2.30;1.00;;;11.10;75.90;;;;;;10330268;28;20062;-60
2022/03/30 09:03:34;;;;;;;2.05;0.90;;;11.20;76.00;;;;;;10325041;28;20038;-62
2022/03/30 09:08:38;;;;;;;1.88;0.98;;;11.20;76.00;;;;;;10333027;28;20358;-63
2022/03/30 09:13:41;;;;;;;1.58;0.77;;;11.30;75.90;;;;;;10336407;28;20050;-64
2022/03/30 09:19:02;;;;;;;2.47;0.90;;;11.20;75.90;;;;;;10342917;28;20113;-63
2022/03/30 09:24:05;;;;;;;1.15;0.77;;;11.30;75.80;;;;;;10352239;28;20033;-61
2022/03/30 09:29:07;;;;;;;1.00;0.70;;;11.30;75.60;;;;;;10353433;28;20030;-64
2022/03/30 09:34:09;;;;;;;1.33;0.70;;;11.40;75.60;;;;;;10362238;28;20439;-63
2022/03/30 09:39:37;;;;;;;2.30;0.95;;;11.40;75.50;;;;;;10354495;28;20078;-58
2022/03/30 09:44:46;;;;;;;1.35;0.60;;;11.50;75.40;;;;;;10354871;28;20096;-66
2022/03/30 09:49:52;;;;;;;2.30;0.73;;;11.50;75.20;;;;;;10364528;28;20022;-65
2022/03/30 09:54:54;;;;;;;4.78;1.42;;;11.50;75.10;;;;;;10343548;28;20045;-64
2022/03/30 10:00:06;;;;;;;2.42;0.90;;;11.60;75.90;;;;;;10340322;28;20029;-71
2022/03/30 10:05:09;;;;;;;3.63;0.73;;;11.60;73.80;;;;;;10363466;28;20036;-70
2022/03/30 10:10:12;;;;;;;2.75;0.80;;;10.70;72.70;;;;;;10343973;28;20062;-66
2022/03/30 10:15:13;;;;;;;2.08;0.88;;;10.30;73.70;;;;;;10344020;28;20050;-70
2022/03/30 10:20:14;;;;;;;3.88;1.08;;;10.10;73.40;;;;;;10350445;28;20515;-63
2022/03/30 10:25:31;;;;;;;3.40;0.88;;;10.10;73.60;;;;;;10343672;28;20038;-69
2022/03/30 10:30:32;;;;;;;2.30;1.10;;;9.90;72.60;;;;;;10350346;28;20104;-63
2022/03/30 10:35:51;;;;;;;1.05;0.80;;;9.50;73.40;;;;;;10350302;28;20115;-62
2022/03/30 10:41:09;;;;;;;3.25;1.25;;;9.20;72.70;;;;;;10365529;28;20061;-65
2022/03/30 10:46:10;;;;;;;2.33;1.10;;;9.10;73.60;;;;;;10332206;28;20030;-70
2022/03/30 10:51:10;;;;;;;3.17;1.30;;;9.20;73.80;;;;;;10365924;28;20462;-70
2022/03/30 10:56:18;;;;;;;2.65;1.25;;;9.20;73.60;;;;;;10364667;28;20050;-69
2022/03/30 11:01:25;;;;;;;2.20;1.25;;;9.20;74.20;;;;;;10360200;28;20037;-67
2022/03/30 11:06:27;;;;;;;3.47;1.00;;;9.10;74.20;;;;;;10353959;28;20097;-66
2022/03/30 11:11:42;;;;;;;2.65;1.42;;;9.20;73.60;;;;;;10358799;28;20072;-66
2022/03/30 11:16:51;;;;;;;2.88;1.50;;;9.30;73.30;;;;;;10360481;28;20108;-69
2022/03/30 11:21:54;;;;;;;2.83;1.95;;;9.50;73.30;;;;;;10349878;28;20539;-67
2022/03/30 11:26:55;;;;;;;3.25;2.13;;;9.60;72.80;;;;;;10361822;28;20045;-67
2022/03/30 11:31:56;;;;;;;2.63;2.00;;;9.60;73.00;;;;;;10358184;28;20165;-66
2022/03/30 11:36:58;;;;;;;4.05;2.30;;;9.70;73.00;;;;;;10353010;28;20025;-68
2022/03/30 11:42:00;;;;;;;3.75;1.48;;;9.70;72.70;;;;;;10358355;28;20034;-68
2022/03/30 11:47:01;;;;;;;3.90;1.67;;;9.70;72.70;;;;;;10355638;28;20044;-66
2022/03/30 11:52:16;;;;;;;3.00;2.00;;;9.70;72.20;;;;;;10354529;28;20042;-62
2022/03/30 11:57:18;;;;;;;1.70;1.15;;;9.60;71.40;;;;;;10359314;28;20026;-73
2022/03/30 12:02:19;;;;;;;2.05;1.60;;;9.60;71.70;;;;;;10343471;28;20038;-70
2022/03/30 12:07:21;;;;;;;1.63;1.05;;;9.70;72.00;;;;;;10356451;28;20029;-70
2022/03/30 12:12:36;;;;;;;4.78;1.60;;;9.50;72.60;;;;;;10361354;28;20057;-67
2022/03/30 12:17:38;;;;;;;3.13;1.13;;;9.60;73.50;;;;;;10352641;28;20559;-68
2022/03/30 12:22:39;;;;;;;3.55;1.30;;;9.90;73.00;;;;;;10338802;28;20099;-64
2022/03/30 12:27:40;;;;;;;2.78;1.10;;;10.30;72.70;;;;;;10361726;28;20028;-63
2022/03/30 12:32:41;;;;;;;2.20;1.08;;;10.50;72.40;;;;;;10351147;28;20540;-61
2022/03/30 12:37:45;;;;;;;2.47;0.93;;;10.70;72.20;;;;;;10361934;28;20025;-64
2022/03/30 12:42:48;;;;;;;1.45;0.90;;;10.90;72.20;;;;;;10349660;28;20477;-63
2022/03/30 12:47:59;;;;;;;2.22;0.90;;;11.00;72.10;;;;;;10364926;28;20022;-61
2022/03/30 12:53:17;;;;;;;3.05;1.70;;;11.10;72.00;;;;;;10360204;28;20045;-63
2022/03/30 12:58:20;;;;;;;1.70;1.00;;;11.30;72.00;;;;;;10354536;28;20018;-64
2022/03/30 13:03:32;;;;;;;1.33;0.90;;;11.40;71.90;;;;;;10367335;28;20499;-65
2022/03/30 13:08:33;;;;;;;0.93;0.82;;;11.50;71.80;;;;;;10369094;28;20026;-64
2022/03/30 13:13:37;;;;;;;1.52;1.08;;;11.60;71.90;;;;;;10378143;28;20412;-64
2022/03/30 13:18:39;;;;;;;3.00;0.90;;;11.60;71.80;;;;;;10352961;28;20061;-64
2022/03/30 13:23:51;;;;;;;2.17;0.80;;;11.70;71.80;;;;;;10365410;28;20041;-62
2022/03/30 13:28:52;;;;;;;0.90;0.60;;;11.70;72.10;;;;;;10363865;28;20096;-61
2022/03/30 13:33:58;;;;;;;1.27;0.90;;;11.80;72.10;;;;;;10367404;28;20457;-62
2022/03/30 13:38:59;;;;;;;1.27;0.70;;;11.90;72.00;;;;;;10363708;28;20077;-63
2022/03/30 13:44:00;;;;;;;1.50;0.90;;;11.90;72.10;;;;;;10355803;28;20374;-63
2022/03/30 13:49:03;;;;;;;0.75;0.65;;;11.90;72.10;;;;;;10370817;28;20022;-64
2022/03/30 13:54:05;;;;;;;2.80;0.88;;;11.90;72.20;;;;;;10355524;28;20037;-64
2022/03/30 13:59:05;;;;;;;1.92;1.02;;;11.90;72.20;;;;;;10362437;28;20180;-60
2022/03/30 14:04:07;;;;;;;1.80;0.82;;;11.90;72.40;;;;;;10366838;28;20453;-63
2022/03/30 14:09:08;;;;;;;2.75;0.70;;;11.90;72.60;;;;;;10360960;28;20108;-64
2022/03/30 14:14:09;;;;;;;1.92;1.10;;;11.90;72.60;;;;;;10359895;28;20525;-63
2022/03/30 14:19:09;;;;;;;1.00;0.60;;;11.90;72.50;;;;;;10353508;28;20035;-65
2022/03/30 14:24:10;;;;;;;1.90;0.90;;;12.00;72.60;;;;;;10365309;28;20025;-62
2022/03/30 14:29:11;;;;;;;1.35;0.90;;;12.00;72.50;;;;;;10365819;28;20440;-64
2022/03/30 14:34:12;;;;;;;1.67;0.70;;;12.00;72.40;;;;;;10360458;28;20583;-64
2022/03/30 14:39:13;;;;;;;1.58;0.80;;;12.00;72.30;;;;;;10366874;28;20032;-64
2022/03/30 14:44:13;;;;;;;1.48;0.70;;;12.00;72.20;;;;;;10353291;28;20030;-65
2022/03/30 14:49:14;;;;;;;1.00;0.60;;;12.10;72.20;;;;;;10365117;28;20034;-65
2022/03/30 14:54:14;;;;;;;2.00;0.85;;;12.10;72.10;;;;;;10361531;28;20135;-64
2022/03/30 14:59:17;;;;;;;1.77;0.80;;;12.10;72.10;;;;;;10360177;28;20023;-63
2022/03/30 15:04:17;;;;;;;1.15;0.70;;;12.10;72.00;;;;;;10365194;28;20041;-64
2022/03/30 15:09:18;;;;;;;1.75;0.70;;;12.10;71.90;;;;;;10360286;28;20026;-62
2022/03/30 15:14:19;;;;;;;3.15;0.70;;;12.10;71.90;;;;;;10359637;28;20152;-64
2022/03/30 15:19:20;;;;;;;1.10;0.90;;;12.10;71.90;;;;;;10354906;28;20013;-64
2022/03/30 15:24:20;;;;;;;2.88;0.80;;;12.20;71.90;;;;;;10359886;28;20029;-64
2022/03/30 15:29:22;;;;;;;1.20;0.60;;;12.10;71.90;;;;;;10366238;28;20357;-65
2022/03/30 15:34:23;;;;;;;1.30;0.70;;;12.10;71.90;;;;;;10357925;28;20045;-64
2022/03/30 15:39:23;;;;;;;3.40;0.70;;;12.10;71.80;;;;;;10362735;28;20026;-65
2022/03/30 15:44:24;;;;;;;0.98;0.60;;;12.10;71.70;;;;;;10351266;28;20079;-64
2022/03/30 15:49:25;;;;;;;2.00;0.77;;;12.10;71.70;;;;;;10355676;28;20082;-67
2022/03/30 15:54:26;;;;;;;4.03;0.77;;;12.10;71.60;;;;;;10361840;28;20056;-66
2022/03/30 15:59:27;;;;;;;1.38;0.57;;;12.10;71.50;;;;;;10332853;28;20024;-72
2022/03/30 16:04:28;;;;;;;5.53;0.70;;;12.10;71.40;;;;;;10343909;28;20081;-68
2022/03/30 16:09:35;;;;;;;2.33;0.95;;;12.10;71.10;;;;;;10334703;28;20497;-68
2022/03/30 16:14:36;;;;;;;2.80;1.00;;;11.50;69.70;;;;;;10330969;28;20061;-67
2022/03/30 16:19:39;;;;;;;2.92;0.77;;;11.10;70.90;;;;;;10361161;28;20030;-68
2022/03/30 16:24:40;;;;;;;1.77;0.90;;;11.20;71.00;;;;;;10360367;28;20127;-63
2022/03/30 16:29:41;;;;;;;1.58;0.50;;;11.30;71.10;;;;;;10349266;28;20156;-64
2022/03/30 16:34:42;;;;;;;2.83;1.45;;;11.40;71.20;;;;;;10355158;28;20062;-68
2022/03/30 16:39:45;;;;;;;1.42;0.73;;;11.50;71.00;;;;;;10367206;28;20021;-66
2022/03/30 16:44:45;;;;;;;6.72;1.10;;;11.50;70.60;;;;;;10339788;28;20034;-69
2022/03/30 16:49:46;;;;;;;4.63;0.88;;;11.60;69.90;;;;;;10334348;28;20030;-67
2022/03/30 16:54:47;;;;;;;1.70;0.77;;;11.40;70.70;;;;;;10347059;28;20044;-66
2022/03/30 16:59:48;;;;;;;3.47;0.70;;;11.40;70.90;;;;;;10352795;28;20038;-66
2022/03/30 17:04:48;;;;;;;3.13;0.65;;;11.40;71.00;;;;;;10345717;28;20652;-65
2022/03/30 17:09:58;;;;;;;2.08;0.80;;;11.50;71.30;;;;;;10351495;28;20038;-65
2022/03/30 17:14:59;;;;;;;2.67;0.88;;;11.50;71.50;;;;;;10348245;28;20056;-64
2022/03/30 17:20:02;;;;;;;1.40;0.60;;;11.50;71.60;;;;;;10358457;28;20037;-64
2022/03/30 17:25:04;;;;;;;5.30;0.80;;;11.60;71.90;;;;;;10350894;28;20045;-65
2022/03/30 17:30:05;;;;;;;2.95;0.57;;;11.60;72.10;;;;;;10344154;28;20556;-66
2022/03/30 17:35:06;;;;;;;3.35;0.90;;;11.60;72.30;;;;;;10353369;28;20034;-66
2022/03/30 17:40:08;;;;;;;3.75;1.02;;;11.60;72.60;;;;;;10357599;28;20014;-67
2022/03/30 17:45:08;;;;;;;1.15;0.70;;;11.60;73.00;;;;;;10352772;28;20037;-65
2022/03/30 17:55:32;;;;;;;2.53;0.75;;;11.60;73.30;;;;;;10363526;28;20160;-64
2022/03/30 18:00:32;;;;;;;2.85;0.80;;;11.60;73.40;;;;;;10332411;28;20022;-64
2022/03/30 18:05:33;;;;;;;1.65;0.77;;;11.50;73.60;;;;;;10356994;28;20034;-65
2022/03/30 18:10:33;;;;;;;3.42;0.70;;;11.50;73.60;;;;;;10337791;28;20138;-65
2022/03/30 18:15:34;;;;;;;3.90;0.70;;;11.50;73.70;;;;;;10336946;28;20038;-64
2022/03/30 18:20:35;;;;;;;2.65;0.88;;;11.50;74.00;;;;;;10345927;28;20030;-64
2022/03/30 18:25:37;;;;;;;3.33;0.60;;;11.40;73.80;;;;;;10364277;28;20026;-64
2022/03/30 18:30:39;;;;;;;2.63;1.25;;;11.40;74.00;;;;;;10368898;28;20498;-62
2022/03/30 18:35:41;;;;;;;2.60;0.90;;;11.40;74.20;;;;;;10355358;28;20672;-63
2022/03/30 18:40:43;;;;;;;4.13;0.80;;;11.40;74.40;;;;;;10358583;28;20017;-64
2022/03/30 18:45:44;;;;;;;3.47;0.90;;;11.40;74.50;;;;;;10342213;28;20151;-65
2022/03/30 18:50:45;;;;;;;2.78;0.85;;;11.30;74.70;;;;;;10341382;28;20080;-68
2022/03/30 18:55:46;;;;;;;1.65;0.73;;;11.30;75.40;;;;;;10343864;28;20046;-68
2022/03/30 19:00:47;;;;;;;1.83;0.70;;;11.30;75.20;;;;;;10335305;28;20038;-64
2022/03/30 19:05:48;;;;;;;4.60;0.80;;;11.30;75.40;;;;;;10355761;28;20499;-66
2022/03/30 19:10:49;;;;;;;1.73;0.85;;;11.20;75.50;;;;;;10359492;28;20161;-65
2022/03/30 19:15:50;;;;;;;2.05;0.60;;;11.20;75.70;;;;;;10359014;28;20034;-65
2022/03/30 19:20:52;;;;;;;1.60;0.60;;;11.20;75.90;;;;;;10346216;28;20076;-65
2022/03/30 19:25:53;;;;;;;2.28;0.70;;;11.10;76.00;;;;;;10352928;28;20030;-64
2022/03/30 19:30:54;;;;;;;2.40;0.70;;;11.10;76.10;;;;;;10352064;28;20026;-64
2022/03/30 19:35:55;;;;;;;2.33;0.70;;;11.10;76.30;;;;;;10352825;28;20060;-65
2022/03/30 19:40:55;;;;;;;1.30;0.57;;;11.10;76.50;;;;;;10358071;28;20087;-64
2022/03/30 19:45:56;;;;;;;2.25;0.60;;;11.00;76.60;;;;;;10353236;28;20649;-65
2022/03/30 19:50:57;;;;;;;2.53;0.70;;;11.00;76.60;;;;;;10349290;28;20018;-65
2022/03/30 19:55:58;;;;;;;3.33;0.60;;;11.00;76.70;;;;;;10336899;28;20034;-63
2022/03/30 20:00:59;;;;;;;2.60;0.40;;;11.00;76.80;;;;;;10349514;28;20044;-63
2022/03/30 20:06:00;;;;;;;2.28;0.50;;;10.90;77.00;;;;;;10362723;28;20022;-65
2022/03/30 20:11:01;;;;;;;0.77;0.45;;;10.90;77.20;;;;;;10350789;28;20030;-63
2022/03/30 20:16:02;;;;;;;1.58;0.70;;;10.90;77.20;;;;;;10353536;28;20042;-66
2022/03/30 20:21:03;;;;;;;2.90;0.50;;;10.80;77.20;;;;;;10355302;28;20030;-64
2022/03/30 20:26:04;;;;;;;1.65;0.68;;;10.80;77.10;;;;;;10357092;28;20095;-65
2022/03/30 20:31:06;;;;;;;1.55;0.50;;;10.80;77.10;;;;;;10362881;28;20041;-65
2022/03/30 20:36:07;;;;;;;1.33;0.50;;;10.70;77.00;;;;;;10347692;28;20417;-64
2022/03/30 20:41:08;;;;;;;1.27;0.40;;;10.70;77.00;;;;;;10352875;28;20025;-65
2022/03/30 20:46:09;;;;;;;1.50;0.60;;;10.70;77.00;;;;;;10350619;28;20054;-64
2022/03/30 20:51:10;;;;;;;2.05;0.60;;;10.70;76.90;;;;;;10354120;28;20434;-65
2022/03/30 20:56:11;;;;;;;0.82;0.50;;;10.80;77.00;;;;;;10359308;28;20041;-63
2022/03/30 21:01:11;;;;;;;2.40;0.60;;;10.60;76.80;;;;;;10359007;28;20550;-64
2022/03/30 21:06:12;;;;;;;0.93;0.47;;;10.60;76.90;;;;;;10362628;28;20124;-64
2022/03/30 21:11:13;;;;;;;1.27;0.50;;;10.60;77.30;;;;;;10358132;28;20549;-64
2022/03/30 21:16:14;;;;;;;1.48;0.50;;;10.50;77.00;;;;;;10360294;28;20080;-65
2022/03/30 21:21:16;;;;;;;0.77;0.40;;;10.50;76.90;;;;;;10370610;28;20026;-65
2022/03/30 21:26:17;;;;;;;2.13;0.40;;;10.50;76.90;;;;;;10384491;28;20131;-65
2022/03/30 21:31:18;;;;;;;0.25;0.20;;;10.50;76.90;;;;;;10376215;28;20034;-65
2022/03/30 21:36:20;;;;;;;0.30;0.30;;;10.40;76.80;;;;;;10338947;28;20057;-65
2022/03/30 21:41:20;;;;;;;2.70;0.38;;;10.40;76.70;;;;;;10357849;28;20038;-65
2022/03/30 21:46:21;;;;;;;1.27;0.32;;;10.40;76.70;;;;;;10360093;28;20026;-63
2022/03/30 21:51:22;;;;;;;0.50;0.30;;;10.40;76.80;;;;;;10361777;28;20053;-65
2022/03/30 21:56:23;;;;;;;0.98;0.38;;;10.30;76.70;;;;;;10361007;28;20139;-66
2022/03/30 22:01:24;;;;;;;1.27;0.32;;;10.30;76.70;;;;;;10359435;28;20850;-65
2022/03/30 22:06:25;;;;;;;0.38;0.38;;;10.30;76.60;;;;;;10358465;28;20036;-64
2022/03/30 22:11:26;;;;;;;0.75;0.50;;;10.20;76.60;;;;;;10358776;28;20053;-65
2022/03/30 22:16:27;;;;;;;1.38;0.40;;;10.20;76.60;;;;;;10356616;28;20042;-65
2022/03/30 22:21:27;;;;;;;1.30;0.40;;;10.20;76.60;;;;;;10345019;28;20045;-65
2022/03/30 22:26:28;;;;;;;0.70;0.40;;;10.20;76.60;;;;;;10363581;28;20045;-64
2022/03/30 22:36:48;;;;;;;1.55;0.30;;;10.20;76.60;;;;;;10358049;28;20420;-64
2022/03/30 22:41:50;;;;;;;0.52;0.32;;;10.10;76.40;;;;;;10363389;28;20040;-65
2022/03/30 22:46:50;;;;;;;2.50;0.50;;;10.10;76.40;;;;;;10363707;28;20105;-65
2022/03/30 22:51:53;;;;;;;1.77;0.57;;;10.10;76.40;;;;;;10351638;28;20440;-65
2022/03/30 22:56:54;;;;;;;0.80;0.50;;;10.20;76.50;;;;;;10365294;28;20096;-64
2022/03/30 23:01:54;;;;;;;1.85;0.50;;;10.00;76.90;;;;;;10352926;28;20026;-65
2022/03/30 23:12:15;;;;;;;0.80;0.40;;;10.00;76.30;;;;;;10365079;28;20137;-64
2022/03/30 23:17:16;;;;;;;1.65;0.30;;;10.00;76.40;;;;;;10365506;28;20053;-65
2022/03/30 23:22:17;;;;;;;2.80;0.40;;;9.90;76.30;;;;;;10340942;28;20043;-63
2022/03/30 23:27:17;;;;;;;0.90;0.40;;;10.00;76.40;;;;;;10361806;28;20116;-64
2022/03/30 23:32:18;;;;;;;1.73;0.50;;;9.90;76.40;;;;;;10340026;28;20037;-65
2022/03/30 23:37:21;;;;;;;0.80;0.50;;;9.90;76.50;;;;;;10365606;28;20034;-63
2022/03/30 23:42:21;;;;;;;1.85;0.40;;;9.90;76.50;;;;;;10355801;28;20084;-64
2022/03/30 23:47:22;;;;;;;0.38;0.28;;;9.80;76.40;;;;;;10364650;28;20017;-65
2022/03/30 23:52:23;;;;;;;0.40;0.30;;;9.80;76.40;;;;;;10336386;28;20022;-63
